Time;durP1;ratioP1;P1;durP2;ratioP2;P2;SDS_P1;SDS_P2;PMS_P1;PMS_P2;Temp;Humidity;BMP_temperature;BMP_pressure;BME280_temperature;BME280_humidity;BME280_pressure;Samples;Min_cycle;Max_cycle;Signal;HPM_P1;HPM_P2
2021/12/14 00:01:31;;;;;;;8.93;5.40;;;-3.90;99.90;;;;;;5052382;28;20114;-69
2021/12/14 00:04:07;;;;;;;11.55;5.82;;;-3.90;99.90;;;;;;5052566;28;20025;-69
2021/12/14 00:06:33;;;;;;;10.48;5.57;;;-3.90;99.90;;;;;;5052133;28;20025;-69
2021/12/14 00:09:01;;;;;;;9.32;4.68;;;-3.90;99.90;;;;;;5052581;28;20033;-69
2021/12/14 00:11:53;;;;;;;8.82;4.65;;;-3.90;99.90;;;;;;5051715;28;20021;-68
2021/12/14 00:16:56;;;;;;;9.25;5.53;;;-3.90;99.90;;;;;;5052406;28;20128;-68
2021/12/14 00:19:22;;;;;;;9.88;5.78;;;-4.00;99.90;;;;;;5052295;28;20021;-68
2021/12/14 00:21:51;;;;;;;9.77;5.40;;;-4.00;99.90;;;;;;5051870;28;20380;-68
2021/12/14 00:24:18;;;;;;;11.20;6.03;;;-4.00;99.90;;;;;;5051991;28;20504;-68
2021/12/14 00:26:50;;;;;;;12.40;5.35;;;-4.00;99.90;;;;;;5052051;28;20025;-68
2021/12/14 00:29:42;;;;;;;10.13;5.75;;;-4.00;99.90;;;;;;5051960;28;20025;-68
2021/12/14 00:32:14;;;;;;;11.25;5.53;;;-4.00;99.90;;;;;;5051902;28;20028;-68
2021/12/14 00:34:42;;;;;;;12.32;5.57;;;-4.00;99.90;;;;;;5051694;28;20025;-68
2021/12/14 00:37:15;;;;;;;8.77;5.18;;;-3.90;99.90;;;;;;5051846;28;20025;-68
2021/12/14 00:39:42;;;;;;;9.00;5.03;;;-3.90;99.90;;;;;;5051849;28;20040;-67
2021/12/14 00:42:08;;;;;;;9.55;5.43;;;-3.90;99.90;;;;;;5051522;28;20135;-68
2021/12/14 00:44:35;;;;;;;9.20;5.00;;;-3.90;99.90;;;;;;5051674;28;20029;-68
2021/12/14 00:47:02;;;;;;;11.60;5.53;;;-3.90;99.90;;;;;;5051826;28;20032;-67
2021/12/14 00:49:28;;;;;;;9.38;5.35;;;-3.90;99.90;;;;;;5051660;28;20051;-68
2021/12/14 00:51:54;;;;;;;9.68;5.20;;;-3.90;99.90;;;;;;5051834;28;20033;-68
2021/12/14 00:54:21;;;;;;;15.38;4.72;;;-3.90;99.90;;;;;;5051811;28;20021;-68
2021/12/14 00:56:50;;;;;;;9.27;4.68;;;-3.90;99.90;;;;;;5051980;28;20033;-68
2021/12/14 00:59:18;;;;;;;9.02;4.88;;;-3.90;99.90;;;;;;5051778;28;20021;-68
2021/12/14 01:01:56;;;;;;;8.43;5.05;;;-3.90;99.90;;;;;;5051403;28;20029;-68
2021/12/14 01:04:27;;;;;;;7.80;4.57;;;-3.80;99.90;;;;;;5051462;28;20036;-67
2021/12/14 01:06:53;;;;;;;9.30;4.57;;;-3.80;99.90;;;;;;5051466;28;20040;-68
2021/12/14 01:09:23;;;;;;;5.45;3.95;;;-3.80;99.90;;;;;;5051528;28;20025;-66
2021/12/14 01:11:51;;;;;;;6.00;4.15;;;-3.70;99.90;;;;;;5051442;28;20058;-65
2021/12/14 01:14:40;;;;;;;6.95;4.10;;;-3.70;99.90;;;;;;5051705;28;20036;-65
2021/12/14 01:17:14;;;;;;;7.35;3.85;;;-3.70;99.90;;;;;;5051811;28;20103;-65
2021/12/14 01:19:49;;;;;;;7.70;4.43;;;-3.70;99.90;;;;;;5051310;28;20028;-65
2021/12/14 01:23:13;;;;;;;6.60;5.00;;;-3.70;99.90;;;;;;5051327;28;20167;-65
2021/12/14 01:25:22;;;;;;;6.82;3.97;;;-3.60;99.90;;;;;;5054140;28;20067;-65
2021/12/14 01:27:57;;;;;;;6.72;3.72;;;-3.60;99.90;;;;;;5055266;28;20456;-66
2021/12/14 01:30:41;;;;;;;7.60;3.55;;;-3.50;99.90;;;;;;5055283;28;20388;-66
2021/12/14 01:33:11;;;;;;;6.78;3.60;;;-3.50;99.90;;;;;;5055215;28;20693;-66
2021/12/14 01:35:38;;;;;;;;;;;-3.50;99.90;;;;;;5055625;28;20025;-66
2021/12/14 01:40:57;;;;;;;6.20;3.40;;;-3.50;99.90;;;;;;5054988;28;20545;-66
2021/12/14 01:43:26;;;;;;;4.80;3.35;;;-3.50;99.90;;;;;;5055176;28;20078;-66
2021/12/14 01:45:53;;;;;;;4.43;2.95;;;-3.50;99.90;;;;;;5053620;28;20052;-67
2021/12/14 01:48:19;;;;;;;7.45;3.35;;;-3.60;99.90;;;;;;5054961;28;20040;-67
2021/12/14 01:50:49;;;;;;;6.30;3.47;;;-3.60;99.90;;;;;;5054528;28;20039;-65
2021/12/14 01:53:16;;;;;;;4.18;3.00;;;-3.60;99.90;;;;;;5055093;28;20376;-65
2021/12/14 01:55:50;;;;;;;5.00;3.30;;;-3.60;99.90;;;;;;5054657;28;20061;-66
2021/12/14 01:58:18;;;;;;;4.93;3.08;;;-3.60;99.90;;;;;;5054057;28;20017;-66
2021/12/14 02:00:52;;;;;;;5.55;3.20;;;-3.60;99.90;;;;;;5054757;28;20031;-66
2021/12/14 02:03:20;;;;;;;5.85;3.53;;;-3.60;99.90;;;;;;5054752;28;20121;-65
2021/12/14 02:05:51;;;;;;;4.47;3.08;;;-3.60;99.90;;;;;;5054612;28;20032;-66
2021/12/14 02:08:21;;;;;;;4.10;2.95;;;-3.60;99.90;;;;;;5054649;28;20036;-66
2021/12/14 02:10:48;;;;;;;6.60;3.78;;;-3.60;99.90;;;;;;5054398;28;20017;-66
2021/12/14 02:13:26;;;;;;;5.63;3.85;;;-3.50;99.90;;;;;;5054592;28;20041;-66
2021/12/14 02:15:52;;;;;;;6.32;3.50;;;-3.50;99.90;;;;;;5054469;28;20083;-66
2021/12/14 02:18:22;;;;;;;6.55;4.35;;;-3.50;99.90;;;;;;5054420;28;20033;-66
2021/12/14 02:21:00;;;;;;;5.93;3.45;;;-3.50;99.90;;;;;;5053188;28;20029;-66
2021/12/14 02:23:27;;;;;;;4.95;3.30;;;-3.50;99.90;;;;;;5054495;28;20083;-66
2021/12/14 02:55:05;;;;;;;4.90;3.10;;;-3.50;99.90;;;;;;5052839;28;20056;-66
2021/12/14 02:57:34;;;;;;;4.97;3.20;;;-3.50;99.90;;;;;;5053495;28;20028;-65
2021/12/14 03:00:01;;;;;;;5.95;3.65;;;-3.50;99.90;;;;;;5053482;28;20028;-65
2021/12/14 03:02:32;;;;;;;4.95;3.20;;;-3.50;99.90;;;;;;5053206;28;20029;-66
2021/12/14 03:05:15;;;;;;;4.88;3.38;;;-3.50;99.90;;;;;;5053786;28;20028;-68
2021/12/14 03:07:56;;;;;;;3.78;3.03;;;-3.50;99.90;;;;;;5053249;28;20128;-66
2021/12/14 03:10:35;;;;;;;5.32;3.50;;;-3.50;99.90;;;;;;5053692;28;20048;-66
2021/12/14 03:13:08;;;;;;;6.28;3.25;;;-3.40;99.90;;;;;;5053293;28;20029;-66
2021/12/14 03:15:46;;;;;;;5.13;3.20;;;-3.40;99.90;;;;;;5053165;28;20147;-65
2021/12/14 03:18:14;;;;;;;5.97;3.20;;;-3.40;99.90;;;;;;5053218;28;20021;-65
2021/12/14 03:20:49;;;;;;;4.03;2.97;;;-3.40;99.90;;;;;;5053216;28;20082;-65
2021/12/14 03:23:27;;;;;;;5.50;3.20;;;-3.40;99.90;;;;;;5053318;28;20495;-65
2021/12/14 03:25:56;;;;;;;4.20;3.15;;;-3.40;99.90;;;;;;5052969;28;20025;-65
2021/12/14 03:28:24;;;;;;;5.20;3.55;;;-3.40;99.90;;;;;;5053010;28;20485;-65
2021/12/14 03:30:55;;;;;;;4.80;3.05;;;-3.40;99.90;;;;;;5052740;28;20473;-65
2021/12/14 03:33:29;;;;;;;5.60;3.38;;;-3.40;99.90;;;;;;5053312;28;20025;-65
2021/12/14 03:36:10;;;;;;;5.10;2.92;;;-3.50;99.90;;;;;;5053123;28;20033;-65
2021/12/14 03:38:43;;;;;;;4.32;3.08;;;-3.50;99.90;;;;;;5052878;28;20025;-65
2021/12/14 03:41:20;;;;;;;6.47;3.15;;;-3.50;99.90;;;;;;5052677;28;20674;-65
2021/12/14 03:44:05;;;;;;;4.22;3.00;;;-3.40;99.90;;;;;;5052684;28;20029;-64
2021/12/14 03:46:42;;;;;;;4.03;2.78;;;-3.40;99.90;;;;;;5051885;28;20025;-65
2021/12/14 03:49:08;;;;;;;4.45;2.95;;;-3.50;99.90;;;;;;5052709;28;20036;-65
2021/12/14 03:51:35;;;;;;;3.55;2.58;;;-3.50;99.90;;;;;;5052335;28;20025;-65
2021/12/14 03:54:01;;;;;;;5.45;3.38;;;-3.40;99.90;;;;;;5051244;28;20056;-65
2021/12/14 03:56:27;;;;;;;4.40;2.70;;;-3.40;99.90;;;;;;5052158;28;20087;-65
2021/12/14 03:58:53;;;;;;;5.78;3.25;;;-3.40;99.90;;;;;;5052305;28;20358;-65
2021/12/14 04:01:23;;;;;;;3.75;2.75;;;-3.40;99.90;;;;;;5052105;28;20499;-65
2021/12/14 04:03:54;;;;;;;5.43;3.00;;;-3.30;99.90;;;;;;5052475;28;20037;-65
2021/12/14 04:06:21;;;;;;;4.65;2.50;;;-3.30;99.90;;;;;;5052254;28;20021;-65
2021/12/14 04:08:48;;;;;;;3.15;2.20;;;-3.30;99.90;;;;;;5052351;28;20389;-65
2021/12/14 04:11:15;;;;;;;4.10;2.78;;;-3.50;99.90;;;;;;5052122;28;20544;-65
2021/12/14 04:13:45;;;;;;;2.95;2.40;;;-3.60;99.90;;;;;;5052550;28;20033;-65
2021/12/14 04:16:15;;;;;;;3.72;2.70;;;-3.70;99.90;;;;;;5052150;28;20049;-65
2021/12/14 04:18:41;;;;;;;6.45;2.92;;;-3.80;99.90;;;;;;5050707;28;20079;-65
2021/12/14 04:21:07;;;;;;;5.13;3.45;;;-3.80;99.90;;;;;;5052256;28;20029;-65
2021/12/14 04:23:38;;;;;;;6.30;2.88;;;-3.80;99.90;;;;;;5051774;28;20063;-65
2021/12/14 04:26:09;;;;;;;5.18;3.40;;;-3.80;99.90;;;;;;5051919;28;20025;-65
2021/12/14 04:28:41;;;;;;;4.78;3.15;;;-3.80;99.90;;;;;;5051932;28;20388;-65
2021/12/14 04:31:08;;;;;;;4.07;2.47;;;-3.80;99.90;;;;;;5051934;28;20021;-65
2021/12/14 04:33:38;;;;;;;4.82;2.92;;;-3.80;99.90;;;;;;5051625;28;20036;-65
2021/12/14 04:36:06;;;;;;;;;;;-3.80;99.90;;;;;;5052271;28;20430;-65
2021/12/14 04:38:36;;;;;;;4.38;2.47;;;-3.80;99.90;;;;;;5052015;28;19928;-65
2021/12/14 04:51:59;;;;;;;4.68;2.58;;;-4.10;99.90;;;;;;5051491;28;20793;-65
2021/12/14 04:54:31;;;;;;;4.80;2.65;;;-4.10;99.90;;;;;;5051710;28;20148;-65
2021/12/14 04:56:58;;;;;;;3.45;2.58;;;-4.10;99.90;;;;;;5051375;28;20041;-66
2021/12/14 04:59:30;;;;;;;3.33;2.60;;;-4.10;99.90;;;;;;5055445;28;20025;-65
2021/12/14 05:02:04;;;;;;;4.35;2.75;;;-4.10;99.90;;;;;;5055468;28;20075;-65
2021/12/14 05:04:32;;;;;;;3.20;2.55;;;-4.10;99.90;;;;;;5055891;28;20025;-65
2021/12/14 05:07:28;;;;;;;3.88;2.85;;;-4.10;99.90;;;;;;5055728;28;20029;-65
2021/12/14 05:09:51;;;;;;;3.88;2.65;;;-4.10;99.90;;;;;;5055290;28;20104;-65
2021/12/14 05:12:28;;;;;;;4.28;2.78;;;-4.10;99.90;;;;;;5055382;28;20029;-65
2021/12/14 05:14:55;;;;;;;3.53;2.72;;;-4.10;99.90;;;;;;5055333;28;20040;-65
2021/12/14 05:17:25;;;;;;;4.53;2.78;;;-4.10;99.90;;;;;;5055461;28;20068;-65
2021/12/14 05:19:52;;;;;;;4.38;2.85;;;-4.10;99.90;;;;;;5055040;28;20017;-65
2021/12/14 05:22:22;;;;;;;4.40;3.05;;;-4.10;99.90;;;;;;5054968;28;20033;-65
2021/12/14 05:24:57;;;;;;;4.65;3.05;;;-4.10;99.90;;;;;;5055201;28;20076;-66
2021/12/14 05:27:29;;;;;;;3.72;2.67;;;-4.10;99.90;;;;;;5055112;28;20108;-65
2021/12/14 05:30:06;;;;;;;4.20;2.78;;;-4.10;99.90;;;;;;5054863;28;20066;-65
2021/12/14 05:32:32;;;;;;;4.07;2.85;;;-4.10;99.90;;;;;;5055174;28;20082;-65
2021/12/14 05:34:57;;;;;;;3.15;2.83;;;-4.10;99.90;;;;;;5054908;28;20108;-66
2021/12/14 05:37:31;;;;;;;5.10;3.00;;;-4.10;99.90;;;;;;5054056;28;20025;-66
2021/12/14 05:40:04;;;;;;;3.70;2.40;;;-4.10;99.90;;;;;;5054696;28;20025;-65
2021/12/14 05:45:20;;;;;;;4.63;2.85;;;-3.10;99.90;;;;;;5054248;28;20431;-67
2021/12/14 05:47:53;;;;;;;4.10;3.13;;;-3.20;99.90;;;;;;5053716;28;20078;-69
2021/12/14 05:50:28;;;;;;;4.80;2.72;;;-3.20;99.90;;;;;;5051691;28;20025;-68
2021/12/14 05:52:54;;;;;;;4.30;3.08;;;-3.40;99.90;;;;;;5053484;28;20029;-68
2021/12/14 05:55:24;;;;;;;3.17;2.45;;;-3.60;99.90;;;;;;5053222;28;20408;-69
2021/12/14 05:57:51;;;;;;;4.53;2.75;;;-3.70;99.90;;;;;;5053342;28;20037;-65
2021/12/14 06:00:18;;;;;;;4.30;2.50;;;-3.80;99.90;;;;;;5053665;28;20029;-65
2021/12/14 06:02:45;;;;;;;3.83;2.83;;;-3.90;99.90;;;;;;5053646;28;20041;-66
2021/12/14 06:05:14;;;;;;;4.30;2.70;;;-4.00;99.90;;;;;;5053733;28;20133;-66
2021/12/14 06:07:41;;;;;;;4.97;3.03;;;-4.00;99.90;;;;;;5053306;28;20032;-66
2021/12/14 06:10:08;;;;;;;7.03;2.85;;;-4.00;99.90;;;;;;5053294;28;20021;-65
2021/12/14 06:12:35;;;;;;;3.38;2.58;;;-4.10;99.90;;;;;;5053438;28;20119;-65
2021/12/14 06:15:08;;;;;;;5.10;2.78;;;-4.10;99.90;;;;;;5053464;28;20388;-66
2021/12/14 06:17:40;;;;;;;5.68;3.08;;;-4.10;99.90;;;;;;5053541;28;20112;-65
2021/12/14 06:20:18;;;;;;;4.45;3.00;;;-4.10;99.90;;;;;;5051487;28;20028;-66
2021/12/14 06:22:45;;;;;;;4.03;2.97;;;-4.10;99.90;;;;;;5054074;28;20103;-67
2021/12/14 06:25:14;;;;;;;4.32;2.92;;;-4.20;99.90;;;;;;5054640;28;20021;-66
2021/12/14 06:27:41;;;;;;;3.70;2.35;;;-4.20;99.90;;;;;;5054008;28;20037;-65
2021/12/14 06:30:09;;;;;;;4.28;2.78;;;-3.90;99.90;;;;;;5054277;28;20025;-65
2021/12/14 06:32:38;;;;;;;5.18;2.97;;;-3.30;99.90;;;;;;5054333;28;20060;-65
2021/12/14 06:35:12;;;;;;;5.20;2.60;;;-3.50;99.90;;;;;;5054354;28;20037;-65
2021/12/14 06:38:10;;;;;;;4.93;2.90;;;-3.70;99.90;;;;;;5053893;28;20323;-65
2021/12/14 06:40:56;;;;;;;4.72;2.88;;;-3.90;99.90;;;;;;5053993;28;20110;-65
2021/12/14 06:43:27;;;;;;;3.90;2.58;;;-4.00;99.90;;;;;;5054034;28;20446;-69
2021/12/14 06:45:58;;;;;;;3.63;2.40;;;-4.10;99.90;;;;;;5053604;28;20112;-66
2021/12/14 06:48:41;;;;;;;4.38;2.90;;;-4.10;99.90;;;;;;5053764;28;20043;-67
2021/12/14 06:51:16;;;;;;;4.97;2.55;;;-4.20;99.90;;;;;;5053639;28;20025;-65
2021/12/14 06:53:45;;;;;;;3.13;2.60;;;-4.20;99.90;;;;;;5053787;28;20047;-65
2021/12/14 06:56:13;;;;;;;4.85;3.25;;;-4.20;99.90;;;;;;5053377;28;20045;-66
2021/12/14 06:58:52;;;;;;;6.53;3.10;;;-4.20;99.90;;;;;;5053458;28;20563;-69
2021/12/14 07:01:22;;;;;;;4.63;2.70;;;-4.20;99.90;;;;;;5053423;28;20032;-67
2021/12/14 07:03:48;;;;;;;5.90;3.30;;;-4.20;99.90;;;;;;5053345;28;20033;-66
2021/12/14 07:06:46;;;;;;;4.75;2.75;;;-4.00;99.90;;;;;;5053336;28;20025;-67
2021/12/14 07:09:14;;;;;;;4.75;2.90;;;-3.60;99.90;;;;;;5053123;28;20059;-67
2021/12/14 07:11:54;;;;;;;3.67;2.83;;;-3.80;99.90;;;;;;5053093;28;20025;-67
2021/12/14 07:14:27;;;;;;;5.72;2.70;;;-3.90;99.90;;;;;;5052501;28;20083;-67
2021/12/14 07:16:55;;;;;;;3.28;2.30;;;-4.00;99.90;;;;;;5053276;28;20040;-67
2021/12/14 07:19:41;;;;;;;2.47;2.28;;;-4.00;99.90;;;;;;5053220;28;20537;-67
2021/12/14 07:22:32;;;;;;;4.07;2.88;;;-4.00;99.90;;;;;;5051928;28;20044;-69
2021/12/14 07:25:00;;;;;;;4.05;2.88;;;-4.00;99.90;;;;;;5051592;28;20041;-68
2021/12/14 07:27:29;;;;;;;5.32;2.50;;;-4.10;99.90;;;;;;5052957;28;20029;-69
2021/12/14 07:30:33;;;;;;;6.38;3.05;;;-4.10;99.90;;;;;;5052757;28;20026;-69
2021/12/14 07:33:02;;;;;;;4.32;2.42;;;-4.20;99.90;;;;;;5052905;28;20035;-69
2021/12/14 07:35:38;;;;;;;3.42;2.83;;;-4.30;99.90;;;;;;5052678;28;20024;-64
2021/12/14 07:38:37;;;;;;;5.25;2.45;;;-4.30;99.90;;;;;;5052611;28;20031;-64
2021/12/14 07:41:05;;;;;;;2.90;2.35;;;-4.30;99.90;;;;;;5051978;28;20091;-65
2021/12/14 07:43:37;;;;;;;3.05;2.58;;;-4.40;99.90;;;;;;5052878;28;20048;-66
2021/12/14 07:46:21;;;;;;;3.10;2.38;;;-4.50;99.90;;;;;;5051776;28;20048;-67
2021/12/14 07:48:51;;;;;;;4.50;2.50;;;-4.50;99.90;;;;;;5032406;28;20048;-67
2021/12/14 07:51:20;;;;;;;4.32;2.45;;;-4.50;99.90;;;;;;5049423;28;20029;-66
2021/12/14 07:54:00;;;;;;;3.35;2.28;;;-4.50;99.90;;;;;;5051983;28;20053;-66
2021/12/14 07:56:51;;;;;;;3.15;2.33;;;-4.50;99.90;;;;;;5052151;28;20517;-66
2021/12/14 07:59:24;;;;;;;3.35;2.67;;;-4.60;99.90;;;;;;5052469;28;20025;-66
2021/12/14 08:02:06;;;;;;;3.92;2.50;;;-4.50;99.90;;;;;;5051822;28;20464;-66
2021/12/14 08:04:37;;;;;;;3.20;2.22;;;-4.50;99.90;;;;;;5052316;28;20051;-73
2021/12/14 08:07:05;;;;;;;3.30;2.50;;;-4.50;99.90;;;;;;5052358;28;20029;-68
2021/12/14 08:09:48;;;;;;;3.30;2.47;;;-4.50;99.90;;;;;;5051922;28;20025;-67
2021/12/14 08:12:36;;;;;;;4.53;2.22;;;-4.60;99.90;;;;;;5050582;28;20036;-67
2021/12/14 08:15:06;;;;;;;3.47;2.13;;;-4.60;99.90;;;;;;5051544;28;20558;-67
2021/12/14 08:17:31;;;;;;;2.60;2.00;;;-4.70;99.90;;;;;;5052225;28;20029;-66
2021/12/14 08:19:58;;;;;;;3.40;2.25;;;-4.70;99.90;;;;;;5051479;28;20495;-67
2021/12/14 08:22:33;;;;;;;4.97;2.40;;;-4.70;99.90;;;;;;5051159;28;20037;-67
2021/12/14 08:24:59;;;;;;;3.58;2.08;;;-4.50;99.90;;;;;;5048614;28;20380;-67
2021/12/14 08:27:27;;;;;;;3.50;2.42;;;-4.20;99.90;;;;;;5048881;28;20024;-67
2021/12/14 08:29:57;;;;;;;3.00;2.05;;;-4.30;99.90;;;;;;5049506;28;20542;-67
2021/12/14 08:32:31;;;;;;;3.42;2.28;;;-4.40;99.90;;;;;;5049779;28;20392;-67
2021/12/14 08:35:02;;;;;;;2.50;1.85;;;-4.40;99.90;;;;;;5051387;28;20013;-64
2021/12/14 08:37:45;;;;;;;4.10;1.80;;;-2.90;99.90;;;;;;5051949;28;20392;-67
2021/12/14 08:40:22;;;;;;;4.07;2.50;;;-2.70;99.90;;;;;;5051774;28;20050;-64
2021/12/14 08:43:01;;;;;;;2.88;2.28;;;-1.50;99.90;;;;;;5051377;28;20040;-64
2021/12/14 08:45:33;;;;;;;3.70;1.98;;;-2.40;99.90;;;;;;5051681;28;20041;-64
2021/12/14 08:48:02;;;;;;;3.58;2.25;;;-3.20;99.90;;;;;;5051797;28;20424;-64
2021/12/14 08:50:33;;;;;;;3.40;2.38;;;-3.60;99.90;;;;;;5051613;28;20060;-64
2021/12/14 08:52:59;;;;;;;3.47;2.30;;;-3.80;99.90;;;;;;5051450;28;20484;-64
2021/12/14 08:55:32;;;;;;;5.80;2.17;;;-4.10;99.90;;;;;;5051495;28;20055;-64
2021/12/14 08:57:59;;;;;;;2.88;1.95;;;-4.20;99.90;;;;;;5051680;28;20033;-64
2021/12/14 09:00:53;;;;;;;3.53;2.40;;;-3.70;99.90;;;;;;5050889;28;20374;-65
2021/12/14 09:03:32;;;;;;;4.65;3.45;;;-3.10;99.90;;;;;;5048505;28;20464;-65
2021/12/14 09:06:01;;;;;;;2.80;1.77;;;-3.10;99.90;;;;;;5051411;28;20022;-64
2021/12/14 09:08:26;;;;;;;3.03;2.13;;;-3.10;99.90;;;;;;5050172;28;20025;-63
2021/12/14 09:10:56;;;;;;;1.95;1.65;;;-3.50;99.90;;;;;;5051317;28;20526;-63
2021/12/14 09:13:24;;;;;;;2.22;1.90;;;-3.70;99.90;;;;;;5051523;28;20033;-63
2021/12/14 09:16:04;;;;;;;2.45;2.00;;;-3.90;99.90;;;;;;5050893;28;20064;-63
2021/12/14 09:18:35;;;;;;;3.97;2.03;;;-4.00;99.90;;;;;;5050076;28;20025;-63
2021/12/14 09:21:08;;;;;;;2.55;1.90;;;-4.10;99.90;;;;;;5051400;28;20481;-63
2021/12/14 09:23:39;;;;;;;2.15;1.95;;;-4.20;99.90;;;;;;5051386;28;20033;-63
2021/12/14 09:26:07;;;;;;;;;;;-4.30;99.90;;;;;;5052016;28;20106;-63
2021/12/14 09:28:35;;;;;;;1.75;1.60;;;-4.40;99.90;;;;;;5049877;28;19905;-63
2021/12/14 09:31:05;;;;;;;3.15;1.80;;;-4.40;99.90;;;;;;5051421;28;20028;-63
2021/12/14 09:33:35;;;;;;;2.45;2.00;;;-4.60;99.90;;;;;;5051488;28;20056;-63
2021/12/14 09:36:01;;;;;;;2.38;1.55;;;-4.60;99.90;;;;;;5051563;28;20037;-64
2021/12/14 09:38:33;;;;;;;2.85;2.03;;;-4.40;99.90;;;;;;5051109;28;20033;-65
2021/12/14 09:41:05;;;;;;;2.30;1.88;;;-4.40;99.90;;;;;;5051095;28;20025;-63
2021/12/14 09:43:32;;;;;;;5.35;2.00;;;-4.50;99.90;;;;;;5051080;28;20037;-63
2021/12/14 09:46:01;;;;;;;2.97;1.83;;;-4.00;99.90;;;;;;5054044;28;20023;-64
2021/12/14 09:48:38;;;;;;;2.63;1.63;;;-4.00;99.90;;;;;;5055005;28;20047;-64
2021/12/14 09:51:08;;;;;;;3.95;2.35;;;-4.10;99.90;;;;;;5054885;28;20021;-64
2021/12/14 09:53:37;;;;;;;4.70;3.47;;;-4.20;99.90;;;;;;5054456;28;20024;-63
2021/12/14 09:56:04;;;;;;;4.25;2.10;;;-4.20;99.90;;;;;;5054510;28;20049;-63
2021/12/14 09:58:37;;;;;;;2.50;1.83;;;-2.60;99.90;;;;;;5054186;28;20110;-65
2021/12/14 10:01:11;;;;;;;2.85;1.70;;;-2.00;99.90;;;;;;5053861;28;20086;-66
2021/12/14 10:03:38;;;;;;;1.75;1.60;;;-2.50;99.90;;;;;;5054155;28;20032;-68
2021/12/14 10:06:10;;;;;;;1.80;1.70;;;-3.00;99.90;;;;;;5054427;28;20188;-66
2021/12/14 10:08:41;;;;;;;2.58;1.70;;;-3.00;99.90;;;;;;5054510;28;20020;-67
2021/12/14 10:11:12;;;;;;;1.98;1.70;;;-3.10;99.90;;;;;;5054601;28;20452;-67
2021/12/14 10:13:44;;;;;;;2.85;1.83;;;-3.30;99.90;;;;;;5054499;28;20503;-64
2021/12/14 10:16:10;;;;;;;3.30;2.15;;;-3.50;99.90;;;;;;5054472;28;20033;-64
2021/12/14 10:18:47;;;;;;;3.25;2.00;;;-3.60;99.90;;;;;;5054122;28;20502;-64
2021/12/14 10:21:15;;;;;;;2.10;1.90;;;-3.60;99.90;;;;;;5054049;28;20071;-64
2021/12/14 10:23:42;;;;;;;4.90;2.05;;;-3.70;99.90;;;;;;5054116;28;20116;-64
2021/12/14 10:26:10;;;;;;;3.22;1.80;;;-3.70;99.90;;;;;;5054060;28;20025;-64
2021/12/14 10:28:40;;;;;;;2.40;1.80;;;-3.80;99.90;;;;;;5054355;28;20037;-64
2021/12/14 10:31:10;;;;;;;2.05;1.52;;;-3.80;99.90;;;;;;5053921;28;20439;-64
2021/12/14 10:33:39;;;;;;;1.65;1.48;;;-3.80;99.90;;;;;;5053917;28;20033;-64
2021/12/14 10:36:18;;;;;;;3.10;1.48;;;-3.80;99.90;;;;;;5053773;28;20029;-63
2021/12/14 10:44:13;;;;;;;2.63;1.48;;;-3.60;99.90;;;;;;5053237;28;20094;-63
2021/12/14 10:46:46;;;;;;;1.73;1.60;;;-3.60;99.90;;;;;;5052977;28;20464;-63
2021/12/14 10:49:14;;;;;;;1.75;1.65;;;-3.70;99.90;;;;;;5052973;28;20025;-63
2021/12/14 10:51:43;;;;;;;3.65;1.83;;;-3.80;99.90;;;;;;5053537;28;20029;-63
2021/12/14 10:54:13;;;;;;;2.25;1.52;;;-3.80;99.90;;;;;;5053587;28;20025;-63
2021/12/14 10:57:00;;;;;;;3.28;1.85;;;-3.90;99.90;;;;;;5053323;28;20053;-63
2021/12/14 10:59:32;;;;;;;3.55;2.25;;;-3.80;99.90;;;;;;5053706;28;20076;-63
2021/12/14 11:01:58;;;;;;;1.88;1.67;;;-3.80;99.90;;;;;;5052044;28;20021;-64
2021/12/14 11:04:37;;;;;;;1.75;1.50;;;-3.80;99.90;;;;;;5052357;28;20068;-64
2021/12/14 11:07:07;;;;;;;5.60;1.80;;;-3.80;99.90;;;;;;5053367;28;20067;-63
2021/12/14 11:09:41;;;;;;;2.22;1.90;;;-3.80;99.90;;;;;;5052546;28;20116;-64
2021/12/14 11:12:16;;;;;;;1.73;1.63;;;-3.90;99.90;;;;;;5052768;28;20029;-64
2021/12/14 11:14:43;;;;;;;3.90;2.33;;;-3.90;99.90;;;;;;5053587;28;20055;-64
2021/12/14 11:20:03;;;;;;;7.35;3.45;;;-3.90;99.90;;;;;;5053368;28;20550;-64
2021/12/14 11:22:40;;;;;;;4.93;2.08;;;-4.00;99.90;;;;;;5052949;28;20033;-65
2021/12/14 11:25:14;;;;;;;4.00;2.20;;;-4.00;99.90;;;;;;5052978;28;20067;-64
2021/12/14 11:27:44;;;;;;;10.25;3.70;;;-4.10;99.90;;;;;;5053102;28;20053;-64
2021/12/14 11:30:37;;;;;;;4.03;2.13;;;-4.10;99.90;;;;;;5052774;28;20021;-64
2021/12/14 11:33:19;;;;;;;9.55;4.85;;;-4.10;99.90;;;;;;5052994;28;20029;-64
2021/12/14 11:36:23;;;;;;;5.43;2.80;;;-4.10;99.90;;;;;;5053004;28;20517;-64
2021/12/14 11:38:57;;;;;;;7.45;4.68;;;-4.00;99.90;;;;;;5053002;28;20036;-64
2021/12/14 11:41:53;;;;;;;8.75;5.03;;;-4.10;99.90;;;;;;5052995;28;20029;-64
2021/12/14 11:44:32;;;;;;;3.65;2.15;;;-4.10;99.90;;;;;;5052425;28;20032;-65
2021/12/14 11:47:33;;;;;;;3.83;2.37;;;-3.90;99.90;;;;;;5052367;28;20469;-64
2021/12/14 11:50:11;;;;;;;4.22;2.33;;;-3.40;99.90;;;;;;5052350;28;20111;-64
2021/12/14 11:52:57;;;;;;;2.33;2.10;;;-3.60;99.90;;;;;;5052432;28;20021;-64
2021/12/14 11:55:34;;;;;;;3.05;2.05;;;-3.70;99.90;;;;;;5052369;28;20097;-64
2021/12/14 11:58:23;;;;;;;4.95;1.80;;;-3.70;99.90;;;;;;5051479;28;20128;-64
2021/12/14 12:01:13;;;;;;;2.40;1.80;;;-3.80;99.90;;;;;;5049693;28;20025;-64
2021/12/14 12:03:43;;;;;;;1.52;1.35;;;-3.90;99.90;;;;;;5052196;28;20503;-65
2021/12/14 12:06:32;;;;;;;;;;;-3.90;99.90;;;;;;5052613;28;20025;-65
2021/12/14 12:11:46;;;;;;;5.38;2.85;;;-4.00;99.90;;;;;;5052646;28;20449;-64
2021/12/14 12:14:29;;;;;;;3.28;2.30;;;-3.90;99.90;;;;;;5052512;28;20035;-64
2021/12/14 12:17:15;;;;;;;8.13;3.03;;;-3.80;99.90;;;;;;5052014;28;20119;-64
2021/12/14 12:19:52;;;;;;;2.40;2.03;;;-3.80;99.90;;;;;;5052132;28;20028;-63
2021/12/14 12:22:18;;;;;;;1.83;1.70;;;-3.50;99.90;;;;;;5051828;28;20439;-63
2021/12/14 12:24:51;;;;;;;3.05;2.50;;;-3.30;99.90;;;;;;5051977;28;20067;-63
2021/12/14 12:27:31;;;;;;;4.78;1.90;;;-3.30;99.90;;;;;;5051799;28;20017;-63
2021/12/14 12:30:30;;;;;;;1.30;1.20;;;-3.30;99.90;;;;;;5051889;28;20013;-64
2021/12/14 12:33:21;;;;;;;3.00;1.95;;;-3.40;99.90;;;;;;5051377;28;20036;-64
2021/12/14 12:36:08;;;;;;;2.58;1.90;;;-3.40;99.90;;;;;;5051220;28;20048;-64
2021/12/14 12:39:00;;;;;;;1.92;1.58;;;-3.40;99.90;;;;;;5051857;28;20029;-64
2021/12/14 12:41:48;;;;;;;2.90;1.60;;;-3.40;99.90;;;;;;5052121;28;20428;-65
2021/12/14 12:44:19;;;;;;;6.07;1.50;;;-3.40;99.90;;;;;;5051886;28;20055;-65
2021/12/14 12:46:56;;;;;;;1.60;1.30;;;0.30;99.90;;;;;;5052059;28;20017;-64
2021/12/14 12:49:41;;;;;;;4.32;2.35;;;3.60;99.90;;;;;;5051595;28;20097;-64
2021/12/14 12:52:12;;;;;;;16.80;6.47;;;2.90;99.90;;;;;;5051436;28;20017;-64
2021/12/14 12:54:49;;;;;;;44.83;19.33;;;2.20;99.90;;;;;;5051493;28;20025;-65
2021/12/14 12:57:39;;;;;;;18.40;8.55;;;1.50;99.90;;;;;;5051319;28;20029;-64
2021/12/14 13:00:20;;;;;;;6.18;3.45;;;0.30;99.90;;;;;;5051487;28;20029;-64
2021/12/14 13:03:08;;;;;;;3.17;2.35;;;-0.70;99.90;;;;;;5051451;28;20025;-65
2021/12/14 13:05:58;;;;;;;3.75;2.53;;;-1.40;99.90;;;;;;5051515;28;20036;-64
2021/12/14 13:08:35;;;;;;;2.35;1.90;;;-1.70;99.90;;;;;;5051630;28;20370;-64
2021/12/14 13:11:12;;;;;;;3.58;3.00;;;-1.80;99.90;;;;;;5051264;28;20032;-64
2021/12/14 13:13:54;;;;;;;1.73;1.52;;;-1.50;99.90;;;;;;5051230;28;20555;-64
2021/12/14 13:16:29;;;;;;;2.70;1.52;;;-1.10;99.90;;;;;;5051289;28;20103;-64
2021/12/14 13:18:54;;;;;;;5.88;2.28;;;-0.30;99.90;;;;;;5053260;28;20021;-64
2021/12/14 13:21:25;;;;;;;2.38;1.73;;;0.40;99.90;;;;;;5055881;28;20036;-64
2021/12/14 13:23:58;;;;;;;7.13;2.42;;;-0.10;99.90;;;;;;5055294;28;20064;-64
2021/12/14 13:26:47;;;;;;;3.72;2.28;;;-0.80;99.90;;;;;;5055216;28;20496;-62
2021/12/14 13:29:12;;;;;;;4.03;2.30;;;-1.30;99.90;;;;;;5055292;28;20028;-62
2021/12/14 13:31:53;;;;;;;4.03;2.15;;;-1.50;99.90;;;;;;5055086;28;20017;-62
2021/12/14 13:34:27;;;;;;;;;;;-1.60;99.90;;;;;;5055259;28;20052;-64
2021/12/14 13:36:55;;;;;;;4.43;2.20;;;-1.60;99.90;;;;;;5054791;28;19909;-63
2021/12/14 13:39:21;;;;;;;4.63;2.58;;;-1.80;99.90;;;;;;5055071;28;20025;-63
2021/12/14 13:41:56;;;;;;;5.57;2.88;;;-2.00;99.90;;;;;;5055101;28;20507;-63
2021/12/14 13:44:22;;;;;;;12.00;2.88;;;-2.10;99.90;;;;;;5054973;28;20547;-64
2021/12/14 13:46:48;;;;;;;9.07;2.45;;;-2.20;99.90;;;;;;5055150;28;20029;-64
2021/12/14 13:49:14;;;;;;;14.90;2.78;;;-2.40;99.90;;;;;;5055087;28;20029;-64
2021/12/14 13:51:40;;;;;;;3.78;2.33;;;-2.50;99.90;;;;;;5054283;28;20079;-63
2021/12/14 13:54:06;;;;;;;6.22;2.58;;;-2.60;99.90;;;;;;5054649;28;20431;-64
2021/12/14 13:56:36;;;;;;;7.07;2.75;;;-2.80;99.90;;;;;;5054552;28;20041;-64
2021/12/14 13:59:03;;;;;;;;;;;-2.90;99.90;;;;;;5055025;28;20481;-64
2021/12/14 14:01:51;;;;;;;3.65;2.20;;;-3.00;99.90;;;;;;5054606;28;19962;-64
2021/12/14 14:04:22;;;;;;;4.57;2.20;;;-3.10;99.90;;;;;;5054439;28;20083;-64
2021/12/14 14:06:48;;;;;;;5.22;2.20;;;-3.20;99.90;;;;;;5054751;28;20025;-64
2021/12/14 14:09:19;;;;;;;5.38;2.42;;;-3.20;99.90;;;;;;5054421;28;20033;-64
2021/12/14 14:11:51;;;;;;;6.15;3.10;;;-3.30;99.90;;;;;;5054541;28;20029;-64
2021/12/14 14:14:17;;;;;;;5.63;2.70;;;-3.30;99.90;;;;;;5054282;28;20025;-64
2021/12/14 14:16:50;;;;;;;7.07;2.90;;;-3.40;99.90;;;;;;5054145;28;20029;-64
2021/12/14 14:19:18;;;;;;;5.15;2.72;;;-3.40;99.90;;;;;;5043776;28;20439;-64